Time;durP1;ratioP1;P1;durP2;ratioP2;P2;SDS_P1;SDS_P2;PMS_P1;PMS_P2;Temp;Humidity;BMP_temperature;BMP_pressure;BME280_temperature;BME280_humidity;BME280_pressure;Samples;Min_cycle;Max_cycle;Signal;HPM_P1;HPM_P2
2021/05/18 16:54:23;;;;;;;7.88;3.08;;;;;22.20;100901.00;;;;5162031;27;20449;-67
2021/05/18 16:56:50;;;;;;;8.90;3.15;;;;;21.70;100908.00;;;;5143332;27;20042;-71
2021/05/18 16:59:17;;;;;;;8.90;2.92;;;;;22.50;100899.00;;;;5142775;27;20022;-70
2021/05/18 17:01:44;;;;;;;6.05;2.80;;;;;22.00;100918.00;;;;5141303;27;20034;-69
2021/05/18 17:04:11;;;;;;;4.88;3.00;;;;;21.70;100920.00;;;;5133543;27;20039;-72
2021/05/18 17:06:38;;;;;;;8.68;2.92;;;;;21.50;100905.00;;;;5115294;27;20031;-71
2021/05/18 17:09:07;;;;;;;8.50;2.95;;;;;20.90;100918.00;;;;5134027;27;20046;-69
2021/05/18 17:11:34;;;;;;;6.90;2.78;;;;;20.60;100908.00;;;;5133529;27;20382;-68
2021/05/18 17:14:00;;;;;;;5.65;2.80;;;;;20.60;100912.00;;;;5138933;27;20075;-71
2021/05/18 17:16:27;;;;;;;11.25;3.00;;;;;20.90;100916.00;;;;5133902;27;20027;-68
2021/05/18 17:18:54;;;;;;;9.82;3.35;;;;;20.80;100918.00;;;;5132909;27;20027;-70
2021/05/18 17:21:20;;;;;;;7.25;2.70;;;;;20.80;100919.00;;;;5126499;27;20118;-68
2021/05/18 17:23:47;;;;;;;7.13;3.67;;;;;21.20;100916.00;;;;5123735;28;20019;-71
2021/05/18 17:26:16;;;;;;;9.10;2.80;;;;;21.40;100915.00;;;;5123514;28;20062;-69
2021/05/18 17:28:43;;;;;;;5.13;2.40;;;;;21.10;100907.00;;;;5113704;28;20109;-71
2021/05/18 17:31:12;;;;;;;4.95;2.65;;;;;21.30;100913.00;;;;5102418;28;20543;-68
2021/05/18 17:33:39;;;;;;;10.30;3.35;;;;;21.80;100888.00;;;;5102810;28;20027;-75
2021/05/18 17:36:05;;;;;;;7.82;2.88;;;;;22.20;100913.00;;;;5103033;28;20020;-73
2021/05/18 17:38:32;;;;;;;9.02;2.60;;;;;21.60;100920.00;;;;5102379;28;20513;-71
2021/05/18 17:41:01;;;;;;;7.82;3.05;;;;;21.20;100903.00;;;;5102096;28;20036;-72
2021/05/18 17:43:28;;;;;;;8.00;2.70;;;;;21.40;100907.00;;;;5103096;28;20037;-72
2021/05/18 17:45:57;;;;;;;4.45;2.67;;;;;21.70;100922.00;;;;5102449;28;20470;-70
2021/05/18 17:48:23;;;;;;;9.00;2.83;;;;;21.20;100918.00;;;;5102464;28;20104;-70
2021/05/18 17:50:50;;;;;;;5.05;2.47;;;;;21.10;100917.00;;;;5102493;28;20153;-71
2021/05/18 17:53:17;;;;;;;5.38;2.08;;;;;21.10;100919.00;;;;5102150;28;20056;-70
2021/05/18 17:55:43;;;;;;;7.90;2.45;;;;;20.70;100912.00;;;;5102357;28;20569;-67
2021/05/18 17:58:10;;;;;;;11.18;2.97;;;;;20.50;100914.00;;;;5102521;28;20035;-72
2021/05/18 18:00:39;;;;;;;8.75;2.33;;;;;20.80;100919.00;;;;5102836;28;20073;-70
2021/05/18 18:03:06;;;;;;;8.43;2.65;;;;;20.70;100915.00;;;;5102492;28;20416;-69
2021/05/18 18:05:33;;;;;;;8.32;2.85;;;;;20.80;100927.00;;;;5089234;28;20042;-72
2021/05/18 18:08:00;;;;;;;5.30;2.25;;;;;21.10;100911.00;;;;5088793;28;20064;-72
2021/05/18 18:10:29;;;;;;;4.93;2.50;;;;;21.50;100903.00;;;;5088245;28;20561;-70
2021/05/18 18:12:56;;;;;;;5.72;2.03;;;;;21.40;100925.00;;;;5088805;28;20499;-68
2021/05/18 18:15:24;;;;;;;10.40;2.33;;;;;21.10;100916.00;;;;5088471;28;20076;-69
2021/05/18 18:17:51;;;;;;;14.07;3.45;;;;;21.10;100917.00;;;;5088049;28;20398;-69
2021/05/18 18:20:18;;;;;;;12.55;3.05;;;;;20.80;100921.00;;;;5087882;28;20114;-69
2021/05/18 18:22:44;;;;;;;11.77;2.50;;;;;21.10;100911.00;;;;5088168;28;20581;-68
2021/05/18 18:25:12;;;;;;;10.88;2.60;;;;;20.70;100918.00;;;;5088259;28;20123;-70
2021/05/18 18:27:39;;;;;;;9.82;2.30;;;;;20.50;100918.00;;;;5087977;28;20032;-68
2021/05/18 18:30:06;;;;;;;5.70;2.00;;;;;20.60;100914.00;;;;5089396;28;20055;-70
2021/05/18 18:32:34;;;;;;;4.82;2.45;;;;;20.50;100924.00;;;;5088536;28;20051;-69
2021/05/18 18:35:00;;;;;;;7.45;2.17;;;;;20.20;100929.00;;;;5088683;28;20028;-73
2021/05/18 18:37:34;;;;;;;12.32;2.50;;;;;20.00;100922.00;;;;5087264;28;20046;-69
2021/05/18 18:40:00;;;;;;;9.40;2.30;;;;;19.90;100928.00;;;;5087444;28;20525;-70
2021/05/18 18:42:27;;;;;;;3.47;2.20;;;;;19.90;100925.00;;;;5088408;28;20081;-72
2021/05/18 18:44:54;;;;;;;8.27;2.38;;;;;19.50;100932.00;;;;5088178;28;20553;-69
2021/05/18 18:47:20;;;;;;;6.38;2.78;;;;;19.40;100933.00;;;;5087906;28;20186;-73
2021/05/18 18:49:50;;;;;;;6.20;2.20;;;;;19.50;100940.00;;;;5087613;28;20107;-72
2021/05/18 18:55:04;;;;;;;11.13;2.67;;;;;19.30;100925.00;;;;5088837;28;20423;-69
2021/05/18 18:57:30;;;;;;;7.78;2.33;;;;;19.20;100929.00;;;;5088111;28;20631;-72
2021/05/18 18:59:57;;;;;;;4.30;2.15;;;;;19.10;100939.00;;;;5088070;28;20039;-70
2021/05/18 19:02:29;;;;;;;12.80;5.43;;;;;19.00;100937.00;;;;5087973;28;20028;-72
2021/05/18 19:04:57;;;;;;;;;;;;;19.20;100940.00;;;;5088851;28;20032;-72
2021/05/18 19:07:37;;;;;;;8.32;3.30;;;;;19.00;100938.00;;;;5087892;28;20274;-71
2021/05/18 19:10:16;;;;;;;11.70;3.67;;;;;18.50;100928.00;;;;5087341;28;20024;-67
2021/05/18 19:12:51;;;;;;;8.95;2.95;;;;;18.30;100936.00;;;;5087223;28;20047;-72
2021/05/18 19:15:18;;;;;;;6.25;2.80;;;;;18.10;100937.00;;;;5087415;28;20127;-70
2021/05/18 19:17:44;;;;;;;7.43;2.60;;;;;18.00;100961.00;;;;5087565;28;20032;-74
2021/05/18 19:20:12;;;;;;;6.30;2.45;;;;;18.10;100947.00;;;;5087831;28;20375;-70
2021/05/18 19:22:40;;;;;;;6.38;2.50;;;;;18.00;100950.00;;;;5087734;28;20743;-71
2021/05/18 19:25:08;;;;;;;21.38;3.78;;;;;18.10;100951.00;;;;5086301;28;20032;-70
2021/05/18 19:27:46;;;;;;;6.53;2.47;;;;;18.10;100944.00;;;;5087547;28;20111;-68
2021/05/18 19:30:17;;;;;;;4.35;2.80;;;;;18.10;100953.00;;;;5086900;28;20051;-71
2021/05/18 19:32:45;;;;;;;7.03;2.53;;;;;18.20;100944.00;;;;5088287;28;20028;-71
2021/05/18 19:35:25;;;;;;;10.45;2.95;;;;;18.10;100938.00;;;;5098116;28;20031;-70
2021/05/18 19:48:29;;;;;;;8.82;2.67;;;;;17.30;100939.00;;;;5103939;28;20036;-72
2021/05/18 19:50:56;;;;;;;13.82;3.10;;;;;17.30;100954.00;;;;5096218;28;20028;-71
2021/05/18 19:53:32;;;;;;;7.95;2.75;;;;;17.00;100945.00;;;;5094711;28;20044;-72
2021/05/18 19:56:25;;;;;;;13.73;3.72;;;;;17.00;100942.00;;;;5094594;28;20027;-66
2021/05/18 20:08:05;;;;;;;8.75;3.00;;;;;16.70;100939.00;;;;5095032;28;20023;-69
2021/05/18 20:21:21;;;;;;;23.13;4.80;;;;;14.90;100971.00;;;;5042382;28;20606;-69
2021/05/18 20:23:39;;;;;;;58.40;14.75;;;;;14.60;100964.00;;;;5079436;28;20044;-69
2021/05/18 20:26:07;;;;;;;69.20;13.60;;;;;14.40;100963.00;;;;5084003;28;20028;-69
2021/05/18 20:28:34;;;;;;;80.47;13.70;;;;;14.30;100975.00;;;;5065235;28;20447;-71
2021/05/18 20:31:02;;;;;;;54.22;7.15;;;;;14.10;100967.00;;;;5083907;28;20148;-69
2021/05/18 20:41:23;;;;;;;15.27;5.55;;;;;13.40;100976.00;;;;5084889;28;20426;-70
2021/05/18 20:43:50;;;;;;;15.50;6.55;;;;;13.30;100972.00;;;;5083000;28;20023;-72
2021/05/18 20:46:17;;;;;;;28.83;7.47;;;;;13.20;100970.00;;;;5084143;28;20046;-72
2021/05/18 20:48:46;;;;;;;23.33;4.97;;;;;13.10;100974.00;;;;5084006;28;20024;-68
2021/05/18 20:51:13;;;;;;;15.20;3.38;;;;;13.00;100979.00;;;;5084591;28;20028;-70
2021/05/18 20:53:40;;;;;;;11.70;3.58;;;;;12.80;100978.00;;;;5085015;28;20465;-69
2021/05/18 20:56:07;;;;;;;9.68;3.10;;;;;12.70;100974.00;;;;5083852;28;20028;-68
2021/05/18 20:58:34;;;;;;;12.00;3.33;;;;;12.60;100990.00;;;;5084448;28;20032;-68
2021/05/18 21:01:01;;;;;;;8.27;2.78;;;;;12.60;100998.00;;;;5084718;28;20027;-72
2021/05/18 21:03:28;;;;;;;16.48;2.95;;;;;12.40;101002.00;;;;5084773;28;20398;-70
2021/05/18 21:06:03;;;;;;;8.23;2.92;;;;;12.40;101004.00;;;;5084329;28;20032;-71
2021/05/18 21:16:13;;;;;;;26.77;6.45;;;;;12.20;101018.00;;;;5084768;28;20424;-68
2021/05/18 21:18:40;;;;;;;30.13;5.43;;;;;12.10;101004.00;;;;5084544;28;20034;-66
2021/05/18 21:21:09;;;;;;;15.25;4.32;;;;;12.00;101002.00;;;;5083767;28;20039;-70
2021/05/18 21:23:36;;;;;;;20.52;5.20;;;;;12.00;101021.00;;;;5083674;28;20028;-67
2021/05/18 21:26:03;;;;;;;24.67;6.32;;;;;11.90;101021.00;;;;5083031;28;20031;-70
2021/05/18 21:28:30;;;;;;;33.33;5.70;;;;;11.90;101022.00;;;;5084132;28;20028;-70
2021/05/18 21:30:57;;;;;;;21.58;8.10;;;;;11.90;101032.00;;;;5082710;28;20035;-70
2021/05/18 21:33:24;;;;;;;29.88;11.57;;;;;11.80;101027.00;;;;5083241;28;20032;-72
2021/05/18 21:35:50;;;;;;;37.42;7.18;;;;;11.80;101026.00;;;;5082983;28;20547;-68
2021/05/18 21:38:17;;;;;;;30.90;7.38;;;;;11.70;101032.00;;;;5065832;28;20399;-69
2021/05/18 21:40:52;;;;;;;35.45;8.80;;;;;11.60;101021.00;;;;5086862;28;20028;-69
2021/05/18 21:43:19;;;;;;;32.80;7.30;;;;;11.60;101039.00;;;;5088029;28;20038;-71
2021/05/18 21:45:46;;;;;;;45.70;8.60;;;;;11.60;101037.00;;;;5087510;28;20200;-71
2021/05/18 21:48:13;;;;;;;40.10;6.80;;;;;11.40;101045.00;;;;5087859;28;20070;-69
2021/05/18 21:50:40;;;;;;;29.25;4.88;;;;;11.30;101051.00;;;;5088334;28;20039;-68
2021/05/18 21:53:07;;;;;;;32.03;7.00;;;;;11.20;101056.00;;;;5086963;28;20095;-70
2021/05/18 21:55:34;;;;;;;19.42;4.72;;;;;11.40;101054.00;;;;5087079;28;20028;-66
2021/05/18 21:58:05;;;;;;;14.13;4.80;;;;;11.40;101054.00;;;;5087202;28;20089;-68
2021/05/18 22:00:43;;;;;;;23.17;3.92;;;;;11.70;101070.00;;;;5086617;28;20024;-73
2021/05/18 22:03:12;;;;;;;6.93;2.75;;;;;12.20;101048.00;;;;5068840;28;20039;-69
2021/05/18 22:05:41;;;;;;;13.68;3.47;;;;;12.50;101061.00;;;;5088586;28;20028;-72
2021/05/18 22:08:15;;;;;;;7.30;2.78;;;;;12.70;101077.00;;;;5087904;28;20035;-70
2021/05/18 22:10:59;;;;;;;10.13;3.17;;;;;12.70;101074.00;;;;5087346;28;20396;-65
2021/05/18 22:27:00;;;;;;;8.00;3.17;;;;;11.60;101057.00;;;;5087305;28;20089;-72
2021/05/18 22:29:29;;;;;;;8.25;2.80;;;;;11.60;101063.00;;;;5086563;28;20059;-69
2021/05/18 22:31:58;;;;;;;8.98;2.75;;;;;11.50;101051.00;;;;5086180;28;20043;-71
2021/05/18 22:34:27;;;;;;;10.73;2.13;;;;;11.40;101065.00;;;;5086651;28;20044;-71
2021/05/18 22:36:54;;;;;;;9.20;2.40;;;;;11.40;101064.00;;;;5086325;28;20024;-72
2021/05/18 22:39:21;;;;;;;5.88;2.10;;;;;11.40;101068.00;;;;5086818;28;20024;-68
2021/05/18 22:41:52;;;;;;;7.75;2.03;;;;;11.70;101065.00;;;;5087124;28;20028;-68
2021/05/18 22:44:19;;;;;;;21.83;3.03;;;;;11.70;101055.00;;;;5086536;28;20032;-68
2021/05/18 22:46:46;;;;;;;11.27;1.90;;;;;11.60;101052.00;;;;5086187;28;20447;-70
2021/05/18 22:49:13;;;;;;;10.68;2.05;;;;;11.60;101055.00;;;;5085700;28;20024;-70
2021/05/18 22:51:39;;;;;;;7.75;1.80;;;;;11.50;101065.00;;;;5085642;28;20031;-71
2021/05/18 22:54:06;;;;;;;4.00;1.60;;;;;11.50;101064.00;;;;5087834;28;20056;-69
2021/05/18 22:56:33;;;;;;;7.32;1.80;;;;;11.70;101068.00;;;;5086623;28;20475;-69
2021/05/18 22:58:59;;;;;;;13.35;2.15;;;;;11.80;101064.00;;;;5087848;28;20028;-67
2021/05/18 23:01:26;;;;;;;3.33;1.58;;;;;11.90;101060.00;;;;5093916;28;20028;-68
2021/05/18 23:03:52;;;;;;;9.15;1.92;;;;;11.90;101068.00;;;;5106507;28;20136;-70
2021/05/18 23:06:19;;;;;;;10.18;2.08;;;;;11.90;101062.00;;;;5106278;28;20034;-68
2021/05/18 23:08:46;;;;;;;8.77;1.83;;;;;11.90;101044.00;;;;5106122;28;20035;-73
2021/05/18 23:11:12;;;;;;;6.25;2.05;;;;;11.90;101050.00;;;;5106793;28;20118;-67
2021/05/18 23:13:39;;;;;;;5.13;1.65;;;;;11.90;101061.00;;;;5106325;28;20036;-71
2021/05/18 23:16:06;;;;;;;12.82;1.92;;;;;11.90;101047.00;;;;5106681;28;20147;-67
2021/05/18 23:18:32;;;;;;;10.07;1.92;;;;;11.90;101041.00;;;;5106653;28;20152;-71
2021/05/18 23:20:59;;;;;;;7.57;1.92;;;;;11.90;101043.00;;;;5106705;28;20030;-72
2021/05/18 23:23:25;;;;;;;5.82;1.77;;;;;11.90;101045.00;;;;5106143;28;20031;-72
2021/05/18 23:25:54;;;;;;;7.22;1.75;;;;;11.90;101048.00;;;;5105418;28;20497;-72
2021/05/18 23:28:20;;;;;;;11.05;2.00;;;;;12.00;101058.00;;;;5106029;28;20030;-72
2021/05/18 23:30:47;;;;;;;7.65;1.60;;;;;11.90;101057.00;;;;5105905;28;20036;-69
2021/05/18 23:33:14;;;;;;;5.30;1.60;;;;;11.80;101056.00;;;;5104913;28;20056;-70
2021/05/18 23:35:40;;;;;;;6.60;1.58;;;;;11.90;101050.00;;;;5106419;28;20173;-72
2021/05/18 23:38:07;;;;;;;13.57;2.10;;;;;11.90;101048.00;;;;5106074;28;20375;-72
2021/05/18 23:40:33;;;;;;;7.13;1.90;;;;;11.80;101044.00;;;;5106664;28;20032;-71
2021/05/18 23:43:00;;;;;;;9.40;2.10;;;;;11.60;101058.00;;;;5105421;28;20407;-73
2021/05/18 23:45:27;;;;;;;3.55;1.90;;;;;11.50;101051.00;;;;5104991;28;20463;-71
2021/05/18 23:47:53;;;;;;;6.95;2.20;;;;;11.30;101062.00;;;;5105822;28;20044;-67
2021/05/18 23:50:20;;;;;;;7.47;2.25;;;;;11.30;101062.00;;;;5104776;28;20073;-73
2021/05/18 23:52:47;;;;;;;9.10;2.60;;;;;11.40;101058.00;;;;5105298;28;20146;-69
2021/05/18 23:55:14;;;;;;;16.92;3.63;;;;;11.40;101059.00;;;;5105915;28;20031;-68
2021/05/18 23:57:41;;;;;;;11.95;3.20;;;;;11.30;101062.00;;;;5105623;28;20031;-71
